• Join FlightAware (Why Join?)
  • Login
  • US Flag 
03:48AM EST


 

Airport Tracker/Info


-or-


 

Live Flight TrackerFlight Track Log ✈ UCA597 ✈ 06-Nov-2013 ✈ KIAD - KBGM

Flight Track Log - Related Links

Times and Time Zones

All times are in EST time to prevent confusion due to time zone crossing. See the UCA597 flight status page for this flight to view local times or setup timezone preferences in your user account.

Time Position Orientation Groundspeed Altitude Reporting Facility
EST Latitude Longitude Course Direction KTS MPH feet Rate Location/Type
05:45PM 38.9500 -77.5000 322° Northwest 139 160 1,600  Level Potomac TRACON
05:46PM 39.0000 -77.5500 322° Northwest 181 208 3,000 1,500 Climbing Potomac TRACON
05:47PM 39.0333 -77.5833 322° Northwest 172 198 4,800 1,560 Climbing Potomac TRACON
05:48PM 39.0833 -77.6000 345° North 190 219 6,200 1,320 Climbing Potomac TRACON
05:49PM 39.1333 -77.5833 14° North 203 234 7,500 1,200 Climbing Potomac TRACON
05:51PM 39.2600 -77.5617 North 207 238 10,300 1,140 Climbing Washington Center
05:52PM 39.3122 -77.5472 12° North 197 227 11,300 900 Climbing Washington Center
05:53PM 39.3731 -77.5300 12° North 202 232 12,200 900 Climbing Washington Center
05:54PM 39.4336 -77.5128 12° North 207 238 13,200 960 Climbing Washington Center
05:55PM 39.4944 -77.4956 12° North 212 244 14,200 960 Climbing Washington Center
05:56PM 39.5553 -77.4783 12° North 217 250 15,200 1,020 Climbing Washington Center
05:58PM 39.6319 -77.4564 12° North 232 267 16,400 840 Climbing New York Center
05:59PM 39.6844 -77.4533 North 219 252 17,100 720 Climbing New York Center
06:00PM 39.7511 -77.4517 North 219 252 17,900 660 Climbing New York Center
06:01PM 39.8056 -77.4514 360° North 219 252 18,500 540 Climbing New York Center
06:02PM 39.8744 -77.4497 North 219 252 19,000 240 Climbing New York Center
06:03PM 39.9367 -77.4153 23° Northeast 237 273 19,000  Level New York Center
06:04PM 40.0144 -77.3683 25° Northeast 272 313 19,000  Level New York Center
06:05PM 40.0878 -77.3236 25° Northeast 279 321 19,000  Level New York Center
06:06PM 40.1656 -77.2767 25° Northeast 291 335 19,000  Level New York Center
06:07PM 40.2411 -77.2294 26° Northeast 298 343 19,000  Level New York Center
06:08PM 40.3164 -77.1847 24° Northeast 298 343 19,000  Level New York Center
06:09PM 40.3942 -77.1372 25° Northeast 298 343 19,000  Level New York Center
06:10PM 40.4694 -77.0925 24° Northeast 298 343 19,000  Level New York Center
06:11PM 40.5450 -77.0447 26° Northeast 298 343 19,000  Level New York Center
06:12PM 40.6139 -77.0017 25° Northeast 298 343 19,000 -300 Level New York Center
06:13PM 40.6978 -76.9519 24° Northeast 290 334 18,500 -600 Descending New York Center
06:14PM 40.7711 -76.9036 27° Northeast 304 350 17,900 -720 Descending New York Center
06:15PM 40.8594 -76.8486 25° Northeast 310 357 17,100 -420 Descending New York Center
06:16PM 40.9328 -76.8028 25° Northeast 315 362 17,100 -60 Level New York Center
06:17PM 41.0189 -76.7472 26° Northeast 315 362 17,000 -60 Descending New York Center
06:18PM 41.0961 -76.7017 24° Northeast 310 357 17,000  Level New York Center
06:19PM 41.1653 -76.6525 28° Northeast 310 357 17,000  Level New York Center
06:20PM 41.2406 -76.6067 25° Northeast 310 357 17,000  Level New York Center
06:21PM 41.3244 -76.5503 27° Northeast 304 350 17,000  Level New York Center
06:22PM 41.3997 -76.5017 26° Northeast 304 350 17,000  Level New York Center
06:23PM 41.4750 -76.4553 25° Northeast 304 350 17,000 -480 Level New York Center
06:24PM 41.5458 -76.4114 25° Northeast 304 350 16,100 -900 Descending New York Center
06:25PM 41.6294 -76.3575 26° Northeast 317 365 15,200 -1,020 Descending New York Center
06:26PM 41.7197 -76.2983 26° Northeast 322 371 14,100 -1,080 Descending New York Center
06:27PM 41.8014 -76.2467 25° Northeast 327 376 13,100 -1,020 Descending New York Center
06:28PM 41.8806 -76.1947 26° Northeast 327 376 12,100 -1,200 Descending New York Center
06:29PM 41.9517 -76.1475 26° Northeast 322 371 10,700 -1,500 Descending New York Center
06:30PM 42.0267 -76.1006 25° Northeast 311 358 9,200 -1,560 Descending New York Center
06:31PM 42.0967 -76.0700 18° North 289 333 7,600 -1,620 Descending New York Center
06:32PM 42.1494 -76.0992 338° Northwest 236 272 6,000 660 Descending New York Center
06:33PM 42.1892 -76.1389 323° Northwest 185 213 9,000 -1,440 Climbing New York Center
06:34PM 42.2392 -76.1403 359° North 180 207 3,200 -3,180 Descending New York Center
06:35PM 42.2664 -76.0892 54° Northeast 142 163 2,700 -300 Descending New York Center
06:36PM 42.2686 -76.0389 87° East 122 140 2,700 -180 Level New York Center
06:37PM 42.2511 -76.0150 135° Southeast 97 112 2,400 -300 Descending New York Center
06:38PM 42.2378 -75.9861 122° Southeast 80 92 2,200 3,300 Descending New York Center
06:39PM 42.2286 -75.9572 113° Southeast 80 92 9,000 6,780 Climbing New York Center
06:41PM 42.2000 -75.9667 North  Level FlightAware Approximate
06:48PM 42.2084 -75.9796 North  Level Estimated
06:49PM 42.2084 -75.9796 North  Level Estimated